Accueil
METAR-TAF:

METAR-TAF

Aéroports :

Base aérienne de Florennes

Florennes, Belgique

latitude: 50-14N, longitude: 004-39E, altitude: 279 m

Observation

Le bulletin a été fait il y a 11 minutes, à 20:25 UTC
Vent 4 kt de nord
Température 9°C
Humidité 93%
Pression 1026 hPa
Visibilité: 5000 m
brume

METAR: EBFS 192025Z AUTO 36004KT 5000 BR FEW150/// 09/08 Q1026 WHT

Heure: 22:36 (20:36 UTC)

Prévision

Le bulletin a été fait il y a 4 heures et 55 minutes, à 15:41 UTC
Prévision valable du 19 à 19 UTC au 20 à 07 UTC
Vent 5 kt de direction variable
Visibilité 10 km ou plus
Quelques nuages à une hauteur de 2500 ft
Temporairement
du 20 à 03 UTC au 20 à 05 UTC
Visibilité: 4000 m
Quelques nuages à une hauteur de 2000 ft
Nuages épars à une hauteur de 20000 ft
brume

TAF: EBFS 191541Z 1919/2007 VRB05KT 9999 FEW025 TEMPO 2003/2005 4000 BR FEW020 SCT200

Observations et prévisions météorologiques de plus de 4000 aéroports (messages METAR et TAF).

Les stations disponibles sont représentées par des disques jaunes et rouges sur la carte.

Passer la souris dessus pour voir le nom de la station.

Cliquer dessus pour voir les observations et prévisions météorologiques.

Pour changer de carte: cliquez sur les boutons verts avec une croix noire pour zoomer, sur le bouton vert avec un tiret pour effectuer un zoom arrière, ou sur les flèches vertes pour les cartes adjacentes.


METAR-TAF: